sensor_id;sensor_type;location;lat;lon;timestamp;P1;durP1;ratioP1;P2;durP2;ratioP2
69594;SDS011;56800;52.142;5.364;2023-02-02T00:01:59;26.33;;;3.47;;
69594;SDS011;56800;52.142;5.364;2023-02-02T00:04:27;32.65;;;3.83;;
69594;SDS011;56800;52.142;5.364;2023-02-02T00:06:59;24.58;;;3.60;;
69594;SDS011;56800;52.142;5.364;2023-02-02T00:09:29;30.52;;;4.53;;
69594;SDS011;56800;52.142;5.364;2023-02-02T00:11:57;21.07;;;3.10;;
69594;SDS011;56800;52.142;5.364;2023-02-02T00:14:25;29.30;;;4.18;;
69594;SDS011;56800;52.142;5.364;2023-02-02T00:16:52;27.73;;;4.55;;
69594;SDS011;56800;52.142;5.364;2023-02-02T00:19:24;21.73;;;3.72;;
69594;SDS011;56800;52.142;5.364;2023-02-02T00:21:53;21.02;;;3.17;;
69594;SDS011;56800;52.142;5.364;2023-02-02T00:24:20;26.60;;;3.13;;
69594;SDS011;56800;52.142;5.364;2023-02-02T00:26:51;28.13;;;3.55;;
69594;SDS011;56800;52.142;5.364;2023-02-02T00:29:23;21.63;;;3.30;;
69594;SDS011;56800;52.142;5.364;2023-02-02T00:31:52;25.00;;;4.57;;
69594;SDS011;56800;52.142;5.364;2023-02-02T00:34:19;27.92;;;3.25;;
69594;SDS011;56800;52.142;5.364;2023-02-02T00:36:47;33.23;;;3.30;;
69594;SDS011;56800;52.142;5.364;2023-02-02T00:39:15;23.77;;;2.97;;
69594;SDS011;56800;52.142;5.364;2023-02-02T00:41:44;29.45;;;4.72;;
69594;SDS011;56800;52.142;5.364;2023-02-02T00:44:11;25.23;;;2.95;;
69594;SDS011;56800;52.142;5.364;2023-02-02T00:46:56;29.42;;;3.65;;
69594;SDS011;56800;52.142;5.364;2023-02-02T00:49:23;22.47;;;3.00;;
69594;SDS011;56800;52.142;5.364;2023-02-02T00:51:50;26.80;;;3.35;;
69594;SDS011;56800;52.142;5.364;2023-02-02T00:54:16;20.50;;;3.45;;
69594;SDS011;56800;52.142;5.364;2023-02-02T00:56:43;25.38;;;3.03;;
69594;SDS011;56800;52.142;5.364;2023-02-02T00:59:10;25.52;;;3.50;;
69594;SDS011;56800;52.142;5.364;2023-02-02T01:01:36;23.10;;;3.07;;
69594;SDS011;56800;52.142;5.364;2023-02-02T01:04:03;26.45;;;3.85;;
69594;SDS011;56800;52.142;5.364;2023-02-02T01:06:30;23.65;;;3.58;;
69594;SDS011;56800;52.142;5.364;2023-02-02T01:08:56;33.45;;;3.55;;
69594;SDS011;56800;52.142;5.364;2023-02-02T01:11:23;20.45;;;3.20;;
69594;SDS011;56800;52.142;5.364;2023-02-02T01:13:50;16.40;;;2.87;;
69594;SDS011;56800;52.142;5.364;2023-02-02T01:16:17;16.85;;;2.65;;
69594;SDS011;56800;52.142;5.364;2023-02-02T01:18:44;17.15;;;2.65;;
69594;SDS011;56800;52.142;5.364;2023-02-02T01:21:11;18.40;;;2.42;;
69594;SDS011;56800;52.142;5.364;2023-02-02T01:23:38;11.82;;;2.05;;
69594;SDS011;56800;52.142;5.364;2023-02-02T01:26:06;17.83;;;1.90;;
69594;SDS011;56800;52.142;5.364;2023-02-02T01:28:34;16.88;;;2.05;;
69594;SDS011;56800;52.142;5.364;2023-02-02T01:31:05;16.75;;;2.70;;
69594;SDS011;56800;52.142;5.364;2023-02-02T01:33:33;15.02;;;2.67;;
69594;SDS011;56800;52.142;5.364;2023-02-02T01:36:02;12.80;;;1.92;;
69594;SDS011;56800;52.142;5.364;2023-02-02T01:38:31;18.23;;;2.17;;
69594;SDS011;56800;52.142;5.364;2023-02-02T01:40:58;19.50;;;2.13;;
69594;SDS011;56800;52.142;5.364;2023-02-02T01:43:29;15.32;;;2.17;;
69594;SDS011;56800;52.142;5.364;2023-02-02T01:46:15;11.52;;;1.88;;
69594;SDS011;56800;52.142;5.364;2023-02-02T01:49:18;14.38;;;2.40;;
69594;SDS011;56800;52.142;5.364;2023-02-02T01:54:24;9.82;;;1.88;;
69594;SDS011;56800;52.142;5.364;2023-02-02T01:57:14;10.15;;;1.75;;
69594;SDS011;56800;52.142;5.364;2023-02-02T01:59:56;9.68;;;1.50;;
69594;SDS011;56800;52.142;5.364;2023-02-02T02:02:25;10.73;;;1.98;;
69594;SDS011;56800;52.142;5.364;2023-02-02T02:04:54;11.45;;;2.00;;
69594;SDS011;56800;52.142;5.364;2023-02-02T02:07:22;12.65;;;1.83;;
69594;SDS011;56800;52.142;5.364;2023-02-02T02:09:49;10.77;;;2.30;;
69594;SDS011;56800;52.142;5.364;2023-02-02T02:12:15;11.15;;;2.22;;
69594;SDS011;56800;52.142;5.364;2023-02-02T02:14:42;12.07;;;2.08;;
69594;SDS011;56800;52.142;5.364;2023-02-02T02:17:40;11.17;;;2.43;;
69594;SDS011;56800;52.142;5.364;2023-02-02T02:20:42;16.08;;;2.13;;
69594;SDS011;56800;52.142;5.364;2023-02-02T02:37:14;13.02;;;3.88;;
69594;SDS011;56800;52.142;5.364;2023-02-02T02:39:49;21.08;;;3.13;;
69594;SDS011;56800;52.142;5.364;2023-02-02T02:42:23;21.48;;;3.05;;
69594;SDS011;56800;52.142;5.364;2023-02-02T02:44:53;18.03;;;3.47;;
69594;SDS011;56800;52.142;5.364;2023-02-02T02:47:22;26.02;;;3.38;;
69594;SDS011;56800;52.142;5.364;2023-02-02T02:49:50;28.02;;;3.60;;
69594;SDS011;56800;52.142;5.364;2023-02-02T02:52:16;24.38;;;3.58;;
69594;SDS011;56800;52.142;5.364;2023-02-02T02:54:44;23.60;;;3.45;;
69594;SDS011;56800;52.142;5.364;2023-02-02T03:08:31;27.67;;;3.75;;
69594;SDS011;56800;52.142;5.364;2023-02-02T03:11:05;25.93;;;3.80;;
69594;SDS011;56800;52.142;5.364;2023-02-02T03:13:35;23.17;;;3.75;;
69594;SDS011;56800;52.142;5.364;2023-02-02T03:16:02;21.95;;;3.55;;
69594;SDS011;56800;52.142;5.364;2023-02-02T03:18:30;26.45;;;4.03;;
69594;SDS011;56800;52.142;5.364;2023-02-02T03:20:57;29.58;;;3.95;;
69594;SDS011;56800;52.142;5.364;2023-02-02T03:23:24;23.87;;;3.77;;
69594;SDS011;56800;52.142;5.364;2023-02-02T03:25:52;30.38;;;3.83;;
69594;SDS011;56800;52.142;5.364;2023-02-02T03:28:19;31.55;;;4.10;;
69594;SDS011;56800;52.142;5.364;2023-02-02T03:30:48;25.75;;;3.33;;
69594;SDS011;56800;52.142;5.364;2023-02-02T03:33:15;26.20;;;3.70;;
69594;SDS011;56800;52.142;5.364;2023-02-02T03:35:43;24.27;;;3.80;;
69594;SDS011;56800;52.142;5.364;2023-02-02T03:38:10;23.13;;;3.53;;
69594;SDS011;56800;52.142;5.364;2023-02-02T03:40:38;30.23;;;3.83;;
69594;SDS011;56800;52.142;5.364;2023-02-02T03:43:05;23.80;;;3.13;;
69594;SDS011;56800;52.142;5.364;2023-02-02T03:45:32;22.55;;;3.88;;
69594;SDS011;56800;52.142;5.364;2023-02-02T03:48:03;30.33;;;4.07;;
69594;SDS011;56800;52.142;5.364;2023-02-02T03:50:31;27.70;;;3.45;;
69594;SDS011;56800;52.142;5.364;2023-02-02T03:53:07;28.02;;;3.92;;
69594;SDS011;56800;52.142;5.364;2023-02-02T03:55:34;25.48;;;3.97;;
69594;SDS011;56800;52.142;5.364;2023-02-02T03:58:00;22.83;;;3.03;;
69594;SDS011;56800;52.142;5.364;2023-02-02T04:00:27;22.20;;;3.50;;
69594;SDS011;56800;52.142;5.364;2023-02-02T04:02:54;22.27;;;3.55;;
69594;SDS011;56800;52.142;5.364;2023-02-02T04:05:20;25.40;;;3.80;;
69594;SDS011;56800;52.142;5.364;2023-02-02T04:07:47;25.08;;;3.70;;
69594;SDS011;56800;52.142;5.364;2023-02-02T04:10:14;26.20;;;3.17;;
69594;SDS011;56800;52.142;5.364;2023-02-02T04:12:41;22.77;;;4.53;;
69594;SDS011;56800;52.142;5.364;2023-02-02T04:15:08;23.92;;;3.13;;
69594;SDS011;56800;52.142;5.364;2023-02-02T04:17:35;30.55;;;3.72;;
69594;SDS011;56800;52.142;5.364;2023-02-02T04:20:03;23.23;;;3.60;;
69594;SDS011;56800;52.142;5.364;2023-02-02T04:22:30;22.50;;;3.45;;
69594;SDS011;56800;52.142;5.364;2023-02-02T04:24:57;23.53;;;3.60;;
69594;SDS011;56800;52.142;5.364;2023-02-02T04:27:24;27.75;;;3.28;;
69594;SDS011;56800;52.142;5.364;2023-02-02T04:29:50;28.15;;;3.42;;
69594;SDS011;56800;52.142;5.364;2023-02-02T04:32:17;17.08;;;2.70;;
69594;SDS011;56800;52.142;5.364;2023-02-02T04:34:44;23.50;;;3.08;;
69594;SDS011;56800;52.142;5.364;2023-02-02T04:37:10;20.77;;;3.87;;
69594;SDS011;56800;52.142;5.364;2023-02-02T04:39:37;22.13;;;3.60;;
69594;SDS011;56800;52.142;5.364;2023-02-02T04:42:04;24.02;;;3.85;;
69594;SDS011;56800;52.142;5.364;2023-02-02T04:44:30;17.85;;;3.33;;
69594;SDS011;56800;52.142;5.364;2023-02-02T04:46:57;24.77;;;3.47;;
69594;SDS011;56800;52.142;5.364;2023-02-02T04:49:24;27.23;;;3.30;;
69594;SDS011;56800;52.142;5.364;2023-02-02T04:51:50;23.08;;;3.67;;
69594;SDS011;56800;52.142;5.364;2023-02-02T04:54:17;22.27;;;3.47;;
69594;SDS011;56800;52.142;5.364;2023-02-02T04:56:44;21.60;;;3.17;;
69594;SDS011;56800;52.142;5.364;2023-02-02T04:59:10;23.08;;;3.47;;
69594;SDS011;56800;52.142;5.364;2023-02-02T05:01:37;20.87;;;3.00;;
69594;SDS011;56800;52.142;5.364;2023-02-02T05:04:04;23.05;;;3.28;;
69594;SDS011;56800;52.142;5.364;2023-02-02T05:06:30;17.90;;;4.10;;
69594;SDS011;56800;52.142;5.364;2023-02-02T05:08:57;24.80;;;3.88;;
69594;SDS011;56800;52.142;5.364;2023-02-02T05:11:23;20.70;;;3.42;;
69594;SDS011;56800;52.142;5.364;2023-02-02T05:13:51;17.00;;;3.20;;
69594;SDS011;56800;52.142;5.364;2023-02-02T05:16:19;23.33;;;3.20;;
69594;SDS011;56800;52.142;5.364;2023-02-02T05:18:48;23.10;;;3.75;;
69594;SDS011;56800;52.142;5.364;2023-02-02T05:21:19;18.27;;;3.40;;
69594;SDS011;56800;52.142;5.364;2023-02-02T05:23:46;22.77;;;3.80;;
69594;SDS011;56800;52.142;5.364;2023-02-02T05:26:13;28.07;;;3.33;;
69594;SDS011;56800;52.142;5.364;2023-02-02T05:28:43;20.33;;;3.35;;
69594;SDS011;56800;52.142;5.364;2023-02-02T05:31:10;17.23;;;2.92;;
69594;SDS011;56800;52.142;5.364;2023-02-02T05:33:37;21.92;;;3.50;;
69594;SDS011;56800;52.142;5.364;2023-02-02T05:36:04;17.92;;;3.28;;
69594;SDS011;56800;52.142;5.364;2023-02-02T05:38:31;26.03;;;4.23;;
69594;SDS011;56800;52.142;5.364;2023-02-02T05:40:58;23.35;;;3.30;;
69594;SDS011;56800;52.142;5.364;2023-02-02T05:43:26;16.48;;;3.15;;
69594;SDS011;56800;52.142;5.364;2023-02-02T05:45:54;20.35;;;3.15;;
69594;SDS011;56800;52.142;5.364;2023-02-02T05:48:21;25.08;;;3.72;;
69594;SDS011;56800;52.142;5.364;2023-02-02T05:53:29;20.40;;;3.10;;
69594;SDS011;56800;52.142;5.364;2023-02-02T05:55:57;17.23;;;3.03;;
69594;SDS011;56800;52.142;5.364;2023-02-02T05:58:24;19.67;;;3.60;;
69594;SDS011;56800;52.142;5.364;2023-02-02T06:00:51;20.23;;;3.53;;
69594;SDS011;56800;52.142;5.364;2023-02-02T06:03:20;23.03;;;2.93;;
69594;SDS011;56800;52.142;5.364;2023-02-02T06:05:47;20.52;;;3.63;;
69594;SDS011;56800;52.142;5.364;2023-02-02T06:08:14;14.43;;;2.97;;
69594;SDS011;56800;52.142;5.364;2023-02-02T06:10:40;16.73;;;2.63;;
69594;SDS011;56800;52.142;5.364;2023-02-02T06:13:07;15.52;;;2.90;;
69594;SDS011;56800;52.142;5.364;2023-02-02T06:15:34;26.17;;;3.20;;
69594;SDS011;56800;52.142;5.364;2023-02-02T06:18:01;16.50;;;2.35;;
69594;SDS011;56800;52.142;5.364;2023-02-02T06:20:28;26.17;;;4.13;;
69594;SDS011;56800;52.142;5.364;2023-02-02T06:22:55;15.35;;;2.35;;
69594;SDS011;56800;52.142;5.364;2023-02-02T06:25:21;23.95;;;3.35;;
69594;SDS011;56800;52.142;5.364;2023-02-02T06:27:48;17.67;;;2.60;;
69594;SDS011;56800;52.142;5.364;2023-02-02T06:30:15;17.02;;;2.90;;
69594;SDS011;56800;52.142;5.364;2023-02-02T06:32:42;18.85;;;2.85;;
69594;SDS011;56800;52.142;5.364;2023-02-02T06:35:09;24.83;;;2.83;;
69594;SDS011;56800;52.142;5.364;2023-02-02T06:37:35;15.77;;;3.35;;
69594;SDS011;56800;52.142;5.364;2023-02-02T06:40:05;20.97;;;3.37;;
69594;SDS011;56800;52.142;5.364;2023-02-02T06:42:33;18.67;;;2.80;;
69594;SDS011;56800;52.142;5.364;2023-02-02T06:45:01;23.00;;;3.25;;
69594;SDS011;56800;52.142;5.364;2023-02-02T06:47:31;23.90;;;3.47;;
69594;SDS011;56800;52.142;5.364;2023-02-02T06:49:58;23.48;;;3.28;;
69594;SDS011;56800;52.142;5.364;2023-02-02T06:52:25;19.90;;;3.10;;
69594;SDS011;56800;52.142;5.364;2023-02-02T06:54:51;19.17;;;3.17;;
69594;SDS011;56800;52.142;5.364;2023-02-02T06:57:18;23.20;;;3.63;;
69594;SDS011;56800;52.142;5.364;2023-02-02T06:59:45;15.85;;;2.85;;
69594;SDS011;56800;52.142;5.364;2023-02-02T07:02:12;16.38;;;3.30;;
69594;SDS011;56800;52.142;5.364;2023-02-02T07:04:39;25.03;;;3.03;;
69594;SDS011;56800;52.142;5.364;2023-02-02T07:07:05;25.10;;;3.28;;
69594;SDS011;56800;52.142;5.364;2023-02-02T07:09:32;19.90;;;3.20;;
69594;SDS011;56800;52.142;5.364;2023-02-02T07:12:00;17.80;;;3.00;;
69594;SDS011;56800;52.142;5.364;2023-02-02T07:14:27;23.55;;;3.38;;
69594;SDS011;56800;52.142;5.364;2023-02-02T07:16:53;20.63;;;3.30;;
69594;SDS011;56800;52.142;5.364;2023-02-02T07:19:20;19.25;;;3.15;;
69594;SDS011;56800;52.142;5.364;2023-02-02T07:21:46;22.55;;;4.10;;
69594;SDS011;56800;52.142;5.364;2023-02-02T07:24:13;18.60;;;3.50;;
69594;SDS011;56800;52.142;5.364;2023-02-02T07:26:40;19.20;;;3.70;;
69594;SDS011;56800;52.142;5.364;2023-02-02T07:29:07;22.80;;;3.53;;
69594;SDS011;56800;52.142;5.364;2023-02-02T07:31:37;26.10;;;3.72;;
69594;SDS011;56800;52.142;5.364;2023-02-02T07:34:09;24.83;;;3.53;;
69594;SDS011;56800;52.142;5.364;2023-02-02T07:36:36;26.33;;;3.95;;
69594;SDS011;56800;52.142;5.364;2023-02-02T07:39:03;20.38;;;3.58;;
69594;SDS011;56800;52.142;5.364;2023-02-02T07:41:33;21.27;;;3.43;;
69594;SDS011;56800;52.142;5.364;2023-02-02T07:44:03;26.02;;;3.83;;
69594;SDS011;56800;52.142;5.364;2023-02-02T07:46:30;29.38;;;3.97;;
69594;SDS011;56800;52.142;5.364;2023-02-02T07:48:57;24.20;;;3.65;;
69594;SDS011;56800;52.142;5.364;2023-02-02T07:51:24;21.27;;;3.33;;
69594;SDS011;56800;52.142;5.364;2023-02-02T07:53:51;20.77;;;3.57;;
69594;SDS011;56800;52.142;5.364;2023-02-02T07:56:21;17.58;;;2.60;;
69594;SDS011;56800;52.142;5.364;2023-02-02T07:58:50;28.83;;;3.78;;
69594;SDS011;56800;52.142;5.364;2023-02-02T08:01:18;22.20;;;3.60;;
69594;SDS011;56800;52.142;5.364;2023-02-02T08:03:48;19.55;;;3.15;;
69594;SDS011;56800;52.142;5.364;2023-02-02T08:06:19;21.83;;;3.37;;
69594;SDS011;56800;52.142;5.364;2023-02-02T08:08:54;22.25;;;3.50;;
69594;SDS011;56800;52.142;5.364;2023-02-02T08:11:21;20.52;;;4.18;;
69594;SDS011;56800;52.142;5.364;2023-02-02T08:13:49;22.23;;;3.33;;
69594;SDS011;56800;52.142;5.364;2023-02-02T08:16:20;24.42;;;3.30;;
69594;SDS011;56800;52.142;5.364;2023-02-02T08:18:48;22.97;;;3.20;;
69594;SDS011;56800;52.142;5.364;2023-02-02T08:21:15;19.40;;;3.30;;
69594;SDS011;56800;52.142;5.364;2023-02-02T08:23:47;18.05;;;3.00;;
69594;SDS011;56800;52.142;5.364;2023-02-02T08:28:46;20.42;;;3.30;;
69594;SDS011;56800;52.142;5.364;2023-02-02T08:31:15;18.27;;;3.13;;
69594;SDS011;56800;52.142;5.364;2023-02-02T08:33:45;25.25;;;3.25;;
69594;SDS011;56800;52.142;5.364;2023-02-02T08:36:13;21.33;;;3.00;;
69594;SDS011;56800;52.142;5.364;2023-02-02T08:38:41;23.00;;;3.15;;
69594;SDS011;56800;52.142;5.364;2023-02-02T08:41:09;21.77;;;2.83;;
69594;SDS011;56800;52.142;5.364;2023-02-02T08:43:39;22.90;;;3.73;;
69594;SDS011;56800;52.142;5.364;2023-02-02T08:46:08;20.02;;;2.88;;
69594;SDS011;56800;52.142;5.364;2023-02-02T08:48:36;13.48;;;3.15;;
69594;SDS011;56800;52.142;5.364;2023-02-02T08:51:04;17.45;;;3.03;;
69594;SDS011;56800;52.142;5.364;2023-02-02T08:53:31;27.80;;;3.60;;
69594;SDS011;56800;52.142;5.364;2023-02-02T08:56:02;18.57;;;2.57;;
69594;SDS011;56800;52.142;5.364;2023-02-02T08:58:31;14.88;;;2.90;;
69594;SDS011;56800;52.142;5.364;2023-02-02T09:01:10;23.60;;;3.88;;
69594;SDS011;56800;52.142;5.364;2023-02-02T09:03:39;15.32;;;3.00;;
69594;SDS011;56800;52.142;5.364;2023-02-02T09:06:07;22.05;;;2.88;;
69594;SDS011;56800;52.142;5.364;2023-02-02T09:08:36;18.10;;;2.60;;
69594;SDS011;56800;52.142;5.364;2023-02-02T09:11:11;19.30;;;2.28;;
69594;SDS011;56800;52.142;5.364;2023-02-02T09:13:39;19.52;;;2.80;;
69594;SDS011;56800;52.142;5.364;2023-02-02T09:16:08;18.35;;;3.05;;
69594;SDS011;56800;52.142;5.364;2023-02-02T09:18:35;24.80;;;2.90;;
69594;SDS011;56800;52.142;5.364;2023-02-02T09:21:03;19.37;;;2.80;;
69594;SDS011;56800;52.142;5.364;2023-02-02T09:23:32;20.52;;;3.53;;
69594;SDS011;56800;52.142;5.364;2023-02-02T09:28:52;24.38;;;2.95;;
69594;SDS011;56800;52.142;5.364;2023-02-02T09:31:20;18.95;;;3.10;;
69594;SDS011;56800;52.142;5.364;2023-02-02T09:33:47;19.30;;;2.70;;
69594;SDS011;56800;52.142;5.364;2023-02-02T09:36:14;17.42;;;3.55;;
69594;SDS011;56800;52.142;5.364;2023-02-02T09:38:43;18.80;;;2.83;;
69594;SDS011;56800;52.142;5.364;2023-02-02T09:46:58;23.73;;;2.97;;
69594;SDS011;56800;52.142;5.364;2023-02-02T09:52:12;20.48;;;3.75;;
69594;SDS011;56800;52.142;5.364;2023-02-02T09:54:53;12.45;;;3.03;;
69594;SDS011;56800;52.142;5.364;2023-02-02T09:57:26;23.17;;;3.15;;
69594;SDS011;56800;52.142;5.364;2023-02-02T09:59:56;20.30;;;3.00;;
69594;SDS011;56800;52.142;5.364;2023-02-02T10:02:27;20.90;;;3.15;;
69594;SDS011;56800;52.142;5.364;2023-02-02T10:05:11;15.93;;;3.22;;
69594;SDS011;56800;52.142;5.364;2023-02-02T10:07:42;17.02;;;3.50;;
69594;SDS011;56800;52.142;5.364;2023-02-02T10:10:28;15.13;;;2.83;;
69594;SDS011;56800;52.142;5.364;2023-02-02T10:13:09;13.00;;;2.80;;
69594;SDS011;56800;52.142;5.364;2023-02-02T10:15:59;20.23;;;2.70;;
69594;SDS011;56800;52.142;5.364;2023-02-02T10:18:38;18.15;;;3.22;;
69594;SDS011;56800;52.142;5.364;2023-02-02T10:23:56;17.13;;;2.47;;
69594;SDS011;56800;52.142;5.364;2023-02-02T10:26:29;13.67;;;3.47;;
69594;SDS011;56800;52.142;5.364;2023-02-02T10:29:07;16.25;;;2.72;;
69594;SDS011;56800;52.142;5.364;2023-02-02T10:31:40;19.13;;;3.47;;
69594;SDS011;56800;52.142;5.364;2023-02-02T10:34:13;22.88;;;3.00;;
69594;SDS011;56800;52.142;5.364;2023-02-02T10:45:38;18.70;;;2.72;;
69594;SDS011;56800;52.142;5.364;2023-02-02T10:48:12;15.77;;;2.95;;
69594;SDS011;56800;52.142;5.364;2023-02-02T10:50:41;23.33;;;3.10;;
69594;SDS011;56800;52.142;5.364;2023-02-02T10:53:14;19.03;;;3.13;;
69594;SDS011;56800;52.142;5.364;2023-02-02T10:55:43;21.40;;;3.20;;
69594;SDS011;56800;52.142;5.364;2023-02-02T10:58:28;21.45;;;3.53;;
69594;SDS011;56800;52.142;5.364;2023-02-02T11:01:14;15.40;;;3.08;;
69594;SDS011;56800;52.142;5.364;2023-02-02T11:03:43;15.35;;;2.65;;
69594;SDS011;56800;52.142;5.364;2023-02-02T11:06:10;17.17;;;2.80;;
69594;SDS011;56800;52.142;5.364;2023-02-02T11:08:56;23.42;;;2.92;;
69594;SDS011;56800;52.142;5.364;2023-02-02T11:11:33;20.95;;;3.30;;
69594;SDS011;56800;52.142;5.364;2023-02-02T11:16:38;17.95;;;3.53;;
69594;SDS011;56800;52.142;5.364;2023-02-02T11:21:49;17.45;;;3.15;;
69594;SDS011;56800;52.142;5.364;2023-02-02T11:24:28;24.38;;;3.08;;
69594;SDS011;56800;52.142;5.364;2023-02-02T11:27:02;22.50;;;3.20;;
69594;SDS011;56800;52.142;5.364;2023-02-02T11:37:30;16.90;;;2.90;;
69594;SDS011;56800;52.142;5.364;2023-02-02T11:42:47;12.95;;;2.92;;
69594;SDS011;56800;52.142;5.364;2023-02-02T11:45:16;11.37;;;2.20;;
69594;SDS011;56800;52.142;5.364;2023-02-02T11:47:45;15.45;;;2.83;;
69594;SDS011;56800;52.142;5.364;2023-02-02T11:50:22;16.73;;;2.75;;
69594;SDS011;56800;52.142;5.364;2023-02-02T11:52:52;16.80;;;2.33;;
69594;SDS011;56800;52.142;5.364;2023-02-02T11:55:23;15.88;;;2.50;;
69594;SDS011;56800;52.142;5.364;2023-02-02T12:00:47;14.48;;;2.20;;
69594;SDS011;56800;52.142;5.364;2023-02-02T12:03:26;17.88;;;2.67;;
69594;SDS011;56800;52.142;5.364;2023-02-02T12:06:00;10.68;;;2.00;;
69594;SDS011;56800;52.142;5.364;2023-02-02T12:08:43;18.38;;;3.13;;
69594;SDS011;56800;52.142;5.364;2023-02-02T12:11:15;13.17;;;2.20;;
69594;SDS011;56800;52.142;5.364;2023-02-02T12:16:59;12.18;;;2.40;;
69594;SDS011;56800;52.142;5.364;2023-02-02T12:24:49;14.10;;;2.33;;
69594;SDS011;56800;52.142;5.364;2023-02-02T12:27:34;16.05;;;2.33;;
69594;SDS011;56800;52.142;5.364;2023-02-02T12:30:26;15.63;;;2.20;;
69594;SDS011;56800;52.142;5.364;2023-02-02T12:41:11;18.33;;;2.47;;
69594;SDS011;56800;52.142;5.364;2023-02-02T12:44:10;17.55;;;2.60;;
69594;SDS011;56800;52.142;5.364;2023-02-02T12:49:50;17.25;;;2.50;;
69594;SDS011;56800;52.142;5.364;2023-02-02T12:55:23;14.60;;;2.17;;
69594;SDS011;56800;52.142;5.364;2023-02-02T12:58:04;10.98;;;2.33;;
69594;SDS011;56800;52.142;5.364;2023-02-02T13:03:27;11.73;;;2.70;;
69594;SDS011;56800;52.142;5.364;2023-02-02T13:08:41;17.35;;;2.97;;
69594;SDS011;56800;52.142;5.364;2023-02-02T13:11:19;18.38;;;2.53;;
69594;SDS011;56800;52.142;5.364;2023-02-02T13:14:40;16.25;;;2.60;;
69594;SDS011;56800;52.142;5.364;2023-02-02T13:16:52;14.95;;;3.20;;
69594;SDS011;56800;52.142;5.364;2023-02-02T13:19:31;17.27;;;2.40;;
69594;SDS011;56800;52.142;5.364;2023-02-02T13:22:18;12.93;;;2.28;;
69594;SDS011;56800;52.142;5.364;2023-02-02T13:24:50;16.50;;;2.90;;
69594;SDS011;56800;52.142;5.364;2023-02-02T13:27:21;15.95;;;2.45;;
69594;SDS011;56800;52.142;5.364;2023-02-02T13:29:54;12.65;;;2.03;;
69594;SDS011;56800;52.142;5.364;2023-02-02T13:32:51;18.30;;;2.70;;
69594;SDS011;56800;52.142;5.364;2023-02-02T13:35:24;20.23;;;2.42;;
69594;SDS011;56800;52.142;5.364;2023-02-02T13:40:54;13.63;;;2.60;;
69594;SDS011;56800;52.142;5.364;2023-02-02T13:46:15;15.90;;;2.30;;
69594;SDS011;56800;52.142;5.364;2023-02-02T14:05:19;5.45;;;1.70;;
69594;SDS011;56800;52.142;5.364;2023-02-02T14:07:56;4.38;;;1.60;;
69594;SDS011;56800;52.142;5.364;2023-02-02T14:10:37;7.32;;;1.40;;
69594;SDS011;56800;52.142;5.364;2023-02-02T14:13:13;5.67;;;1.70;;
69594;SDS011;56800;52.142;5.364;2023-02-02T14:16:02;3.95;;;1.23;;
69594;SDS011;56800;52.142;5.364;2023-02-02T14:18:50;5.60;;;1.50;;
69594;SDS011;56800;52.142;5.364;2023-02-02T14:26:52;1.80;;;1.00;;
69594;SDS011;56800;52.142;5.364;2023-02-02T14:31:55;2.88;;;1.30;;
69594;SDS011;56800;52.142;5.364;2023-02-02T14:34:28;6.13;;;1.17;;
69594;SDS011;56800;52.142;5.364;2023-02-02T14:39:46;2.53;;;1.07;;
69594;SDS011;56800;52.142;5.364;2023-02-02T14:48:41;3.33;;;1.30;;
69594;SDS011;56800;52.142;5.364;2023-02-02T14:51:24;3.33;;;1.20;;
69594;SDS011;56800;52.142;5.364;2023-02-02T14:53:53;11.03;;;1.60;;
69594;SDS011;56800;52.142;5.364;2023-02-02T14:56:39;2.67;;;1.35;;
69594;SDS011;56800;52.142;5.364;2023-02-02T14:59:16;3.88;;;1.70;;
69594;SDS011;56800;52.142;5.364;2023-02-02T15:01:52;4.53;;;1.83;;
69594;SDS011;56800;52.142;5.364;2023-02-02T15:04:25;5.35;;;2.10;;
69594;SDS011;56800;52.142;5.364;2023-02-02T15:06:52;6.47;;;2.10;;
69594;SDS011;56800;52.142;5.364;2023-02-02T15:17:32;6.43;;;2.50;;
69594;SDS011;56800;52.142;5.364;2023-02-02T15:25:23;10.48;;;3.45;;
69594;SDS011;56800;52.142;5.364;2023-02-02T15:33:37;15.00;;;3.43;;
69594;SDS011;56800;52.142;5.364;2023-02-02T15:36:09;18.27;;;4.18;;
69594;SDS011;56800;52.142;5.364;2023-02-02T15:38:46;11.48;;;3.72;;
69594;SDS011;56800;52.142;5.364;2023-02-02T15:41:18;10.43;;;3.78;;
69594;SDS011;56800;52.142;5.364;2023-02-02T15:43:48;14.88;;;3.53;;
69594;SDS011;56800;52.142;5.364;2023-02-02T15:46:17;9.33;;;3.17;;
69594;SDS011;56800;52.142;5.364;2023-02-02T15:49:13;14.90;;;3.80;;
69594;SDS011;56800;52.142;5.364;2023-02-02T15:51:58;17.90;;;3.63;;
69594;SDS011;56800;52.142;5.364;2023-02-02T15:54:29;13.45;;;3.75;;
69594;SDS011;56800;52.142;5.364;2023-02-02T15:57:01;12.70;;;3.97;;
69594;SDS011;56800;52.142;5.364;2023-02-02T15:59:29;10.90;;;3.43;;
69594;SDS011;56800;52.142;5.364;2023-02-02T16:04:35;10.45;;;3.33;;
69594;SDS011;56800;52.142;5.364;2023-02-02T16:07:05;11.85;;;3.15;;
69594;SDS011;56800;52.142;5.364;2023-02-02T16:09:37;14.68;;;3.53;;
69594;SDS011;56800;52.142;5.364;2023-02-02T16:12:11;17.13;;;3.50;;
69594;SDS011;56800;52.142;5.364;2023-02-02T16:14:48;14.50;;;3.70;;
69594;SDS011;56800;52.142;5.364;2023-02-02T16:19:49;19.08;;;3.90;;
69594;SDS011;56800;52.142;5.364;2023-02-02T16:22:21;12.25;;;3.95;;
69594;SDS011;56800;52.142;5.364;2023-02-02T16:24:51;15.10;;;3.80;;
69594;SDS011;56800;52.142;5.364;2023-02-02T16:27:22;18.88;;;3.65;;
69594;SDS011;56800;52.142;5.364;2023-02-02T16:29:52;11.77;;;3.88;;
69594;SDS011;56800;52.142;5.364;2023-02-02T16:32:24;14.00;;;3.90;;
69594;SDS011;56800;52.142;5.364;2023-02-02T16:34:56;17.73;;;3.78;;
69594;SDS011;56800;52.142;5.364;2023-02-02T16:37:30;20.10;;;4.93;;
69594;SDS011;56800;52.142;5.364;2023-02-02T16:40:15;19.02;;;4.30;;
69594;SDS011;56800;52.142;5.364;2023-02-02T16:43:05;21.40;;;4.50;;
69594;SDS011;56800;52.142;5.364;2023-02-02T16:45:57;19.83;;;4.53;;
69594;SDS011;56800;52.142;5.364;2023-02-02T16:48:36;16.35;;;4.95;;
69594;SDS011;56800;52.142;5.364;2023-02-02T16:53:55;18.38;;;4.88;;
69594;SDS011;56800;52.142;5.364;2023-02-02T16:58:53;22.88;;;4.70;;
69594;SDS011;56800;52.142;5.364;2023-02-02T17:01:39;18.25;;;4.85;;
69594;SDS011;56800;52.142;5.364;2023-02-02T17:04:16;19.07;;;4.87;;
69594;SDS011;56800;52.142;5.364;2023-02-02T17:06:55;20.30;;;4.15;;
69594;SDS011;56800;52.142;5.364;2023-02-02T17:14:59;15.30;;;4.28;;
69594;SDS011;56800;52.142;5.364;2023-02-02T17:17:30;17.27;;;4.40;;
69594;SDS011;56800;52.142;5.364;2023-02-02T17:19:57;22.80;;;4.35;;
69594;SDS011;56800;52.142;5.364;2023-02-02T17:22:24;16.98;;;4.55;;
69594;SDS011;56800;52.142;5.364;2023-02-02T17:24:52;22.90;;;4.60;;
69594;SDS011;56800;52.142;5.364;2023-02-02T17:27:22;17.95;;;4.90;;
69594;SDS011;56800;52.142;5.364;2023-02-02T17:29:53;24.13;;;4.90;;
69594;SDS011;56800;52.142;5.364;2023-02-02T17:32:20;17.77;;;4.18;;
69594;SDS011;56800;52.142;5.364;2023-02-02T17:34:48;17.02;;;4.57;;
69594;SDS011;56800;52.142;5.364;2023-02-02T17:37:15;19.15;;;4.38;;
69594;SDS011;56800;52.142;5.364;2023-02-02T17:39:42;16.08;;;4.30;;
69594;SDS011;56800;52.142;5.364;2023-02-02T17:42:15;17.47;;;4.77;;
69594;SDS011;56800;52.142;5.364;2023-02-02T17:44:49;18.83;;;4.43;;
69594;SDS011;56800;52.142;5.364;2023-02-02T17:47:15;26.13;;;4.60;;
69594;SDS011;56800;52.142;5.364;2023-02-02T17:49:42;17.90;;;4.10;;
69594;SDS011;56800;52.142;5.364;2023-02-02T17:52:09;20.58;;;4.82;;
69594;SDS011;56800;52.142;5.364;2023-02-02T17:54:37;19.80;;;4.57;;
69594;SDS011;56800;52.142;5.364;2023-02-02T17:57:04;22.45;;;4.97;;